Taiheimaru — JM6135 — position and weather

sailwx.info

Track history (hours):
 
Tides and Currents Weather Stations Pressure Air Temp Water Temp Dewpoint Dewpoint Depression Visibility Wind Speed Wind Dir Waves Ship Positions

Taiheimaru

Last reported at 2015-Jan-23 05:32 UTC. Time now 2015-Jan-26 04:29 UTC.
Position N 34°37' E 135°08'.

Length 78 m.

Type: Cargo ship. MMSI: 431400082.

Date/timePositionNaut miles runAvg speedWind from/ knotsBaromVisibWave heightAir tempDewpointWater temp
2015-Jan-23 05:32N 34°37' E 135°08'6 5.8
2015-Jan-23 04:30N 34°40' E 135°14'0 0.0
2015-Jan-23 03:33N 34°40' E 135°14'0 0.0
2015-Jan-23 02:24N 34°40' E 135°14'1 1.1
2015-Jan-23 01:33N 34°39' E 135°15'1 0.4
2015-Jan-23 00:21N 34°38' E 135°15'0 0.1
2015-Jan-22 23:32N 34°38' E 135°15'1 1.0
2015-Jan-22 22:32N 34°38' E 135°14'1010.0
2015-Jan-22 21:32N 34°36' E 135°02'1 0.0
2015-Jan-21 02:22N 34°37' E 135°01'1111.9
2015-Jan-21 01:28N 34°38' E 135°14'2 2.0
2015-Jan-21 00:30N 34°40' E 135°14'0 0.0
2015-Jan-20 23:28N 34°40' E 135°14'1 1.4
2015-Jan-20 22:33N 34°38' E 135°15'0 0.0
2015-Jan-20 21:30N 34°38' E 135°15'0 0.1
2015-Jan-20 20:33N 34°38' E 135°15'10 9.5
2015-Jan-20 19:33N 34°35' E 135°04'7 0.2
2015-Jan-19 11:32N 34°37' E 134°56'1111.2
2015-Jan-19 10:33N 34°36' E 135°09'1110.9
2015-Jan-19 09:30N 34°38' E 135°23'2 1.8
2015-Jan-19 08:29N 34°38' E 135°25'7 7.4
2015-Jan-19 07:33N 34°39' E 135°17'2 1.8
2015-Jan-19 06:23N 34°40' E 135°14'0 0.1
2015-Jan-19 05:30N 34°40' E 135°14'0 0.0
2015-Jan-19 04:30N 34°40' E 135°14'1 1.2
2015-Jan-19 03:32N 34°40' E 135°13'0 0.1
2015-Jan-19 02:33N 34°40' E 135°13'0 0.0
2015-Jan-19 01:22N 34°40' E 135°13'0 0.0
2015-Jan-19 00:33N 34°40' E 135°13'0 0.0
2015-Jan-18 23:29N 34°40' E 135°13'0 0.0
2015-Jan-18 22:29N 34°40' E 135°13'3 3.7
2015-Jan-18 21:33N 34°37' E 135°12'  
2015-Jan-16 04:33N 34°36' E 135°04'1211.5
2015-Jan-16 03:31N 34°38' E 135°19'2 1.0
2015-Jan-16 01:31N 34°39' E 135°21'5 5.2
2015-Jan-16 00:30N 34°39' E 135°15'0 0.0
2015-Jan-15 23:28N 34°39' E 135°15'1 1.1
2015-Jan-15 22:30N 34°38' E 135°15'0 0.0
2015-Jan-15 21:30N 34°38' E 135°15'0 0.0
2015-Jan-15 20:33N 34°38' E 135°15'1 1.2
2015-Jan-15 19:33N 34°38' E 135°14'9 9.3
2015-Jan-15 18:33N 34°36' E 135°03'0 0.0
2015-Jan-14 02:33N 34°36' E 135°03'1010.3
2015-Jan-14 01:33N 34°39' E 135°15'1 0.6
2015-Jan-14 00:24N 34°40' E 135°14'0 0.1
2015-Jan-13 23:28N 34°40' E 135°14'1 1.2
2015-Jan-13 22:33N 34°38' E 135°15'0 0.0
2015-Jan-13 21:29N 34°38' E 135°15'6 5.8
2015-Jan-13 20:31N 34°36' E 135°09'  
Track history (hours):
 
Tides and Currents Weather Stations Pressure Air Temp Water Temp Dewpoint Dewpoint Depression Visibility Wind Speed Wind Dir Waves Ship Positions

Taiheimaru

Last reported at 2015-Jan-23 05:32 UTC. Time now 2015-Jan-26 04:29 UTC.
Position N 34°37' E 135°08'.

Length 78 m.

Type: Cargo ship. MMSI: 431400082.

Date/timePositionNaut miles runAvg speedWind from/ knotsBaromVisibWave heightAir tempDewpointWater temp
2015-Jan-23 05:32N 34°37' E 135°08'6 5.8
2015-Jan-23 04:30N 34°40' E 135°14'0 0.0
2015-Jan-23 03:33N 34°40' E 135°14'0 0.0
2015-Jan-23 02:24N 34°40' E 135°14'1 1.1
2015-Jan-23 01:33N 34°39' E 135°15'1 0.4
2015-Jan-23 00:21N 34°38' E 135°15'0 0.1
2015-Jan-22 23:32N 34°38' E 135°15'1 1.0
2015-Jan-22 22:32N 34°38' E 135°14'1010.0
2015-Jan-22 21:32N 34°36' E 135°02'1 0.0
2015-Jan-21 02:22N 34°37' E 135°01'1111.9
2015-Jan-21 01:28N 34°38' E 135°14'2 2.0
2015-Jan-21 00:30N 34°40' E 135°14'0 0.0
2015-Jan-20 23:28N 34°40' E 135°14'1 1.4
2015-Jan-20 22:33N 34°38' E 135°15'0 0.0
2015-Jan-20 21:30N 34°38' E 135°15'0 0.1
2015-Jan-20 20:33N 34°38' E 135°15'10 9.5
2015-Jan-20 19:33N 34°35' E 135°04'7 0.2
2015-Jan-19 11:32N 34°37' E 134°56'1111.2
2015-Jan-19 10:33N 34°36' E 135°09'1110.9
2015-Jan-19 09:30N 34°38' E 135°23'2 1.8
2015-Jan-19 08:29N 34°38' E 135°25'7 7.4
2015-Jan-19 07:33N 34°39' E 135°17'2 1.8
2015-Jan-19 06:23N 34°40' E 135°14'0 0.1
2015-Jan-19 05:30N 34°40' E 135°14'0 0.0
2015-Jan-19 04:30N 34°40' E 135°14'1 1.2
2015-Jan-19 03:32N 34°40' E 135°13'0 0.1
2015-Jan-19 02:33N 34°40' E 135°13'0 0.0
2015-Jan-19 01:22N 34°40' E 135°13'0 0.0
2015-Jan-19 00:33N 34°40' E 135°13'0 0.0
2015-Jan-18 23:29N 34°40' E 135°13'0 0.0
2015-Jan-18 22:29N 34°40' E 135°13'3 3.7
2015-Jan-18 21:33N 34°37' E 135°12'  
2015-Jan-16 04:33N 34°36' E 135°04'1211.5
2015-Jan-16 03:31N 34°38' E 135°19'2 1.0
2015-Jan-16 01:31N 34°39' E 135°21'5 5.2
2015-Jan-16 00:30N 34°39' E 135°15'0 0.0
2015-Jan-15 23:28N 34°39' E 135°15'1 1.1
2015-Jan-15 22:30N 34°38' E 135°15'0 0.0
2015-Jan-15 21:30N 34°38' E 135°15'0 0.0
2015-Jan-15 20:33N 34°38' E 135°15'1 1.2
2015-Jan-15 19:33N 34°38' E 135°14'9 9.3
2015-Jan-15 18:33N 34°36' E 135°03'0 0.0
2015-Jan-14 02:33N 34°36' E 135°03'1010.3
2015-Jan-14 01:33N 34°39' E 135°15'1 0.6
2015-Jan-14 00:24N 34°40' E 135°14'0 0.1
2015-Jan-13 23:28N 34°40' E 135°14'1 1.2
2015-Jan-13 22:33N 34°38' E 135°15'0 0.0
2015-Jan-13 21:29N 34°38' E 135°15'6 5.8
2015-Jan-13 20:31N 34°36' E 135°09'  

Dump ship's entire track history